Umbilo — ZS3036 — position and weather

sailwx.info

Track history (hours):
 
Tides and Currents Weather Stations Pressure Air Temp Water Temp Dewpoint Dewpoint Depression Visibility Wind Speed Wind Dir Waves Ship Positions

Umbilo

Last reported at 2018-Aug-14 23:08 UTC. Time now 2018-Aug-14 23:44 UTC.
Position S 29°52' E 031°02'.

Length 31 m.

Type: Pilot. MMSI: 601124000.

Date/timePositionNaut miles runAvg speedWind from/ knotsBaromVisibWave heightAir tempDewpointWater temp
2018-Aug-14 23:08S 29°52' E 031°02'1 5.6
2018-Aug-14 23:00S 29°53' E 031°02'1 0.9
2018-Aug-14 22:25S 29°53' E 031°02'0 0.0
2018-Aug-14 22:00S 29°53' E 031°02'1 0.8
2018-Aug-14 20:13S 29°52' E 031°02'1 6.0
2018-Aug-14 20:01S 29°53' E 031°03'0 0.5
2018-Aug-14 19:27S 29°53' E 031°03'1 2.3
2018-Aug-14 19:00S 29°52' E 031°02'0 0.9
2018-Aug-14 18:30S 29°53' E 031°02'1 1.6
2018-Aug-14 17:56S 29°52' E 031°03'0 0.0
2018-Aug-14 17:26S 29°52' E 031°03'1 1.7
2018-Aug-14 17:00S 29°52' E 031°02'1 0.1
2018-Aug-14 06:47S 29°52' E 031°02'2 6.3
2018-Aug-14 06:29S 29°53' E 031°00'0 0.1
2018-Aug-14 05:39S 29°53' E 031°00'1 6.6
2018-Aug-14 05:30S 29°52' E 031°01'1 0.4
2018-Aug-14 03:11S 29°52' E 031°02'1 5.1
2018-Aug-14 03:00S 29°53' E 031°02'1 1.1
2018-Aug-14 02:21S 29°53' E 031°02'1 2.7
2018-Aug-14 01:57S 29°52' E 031°02'0 0.1
2018-Aug-13 18:45S 29°52' E 031°02'1 1.3
2018-Aug-13 18:00S 29°53' E 031°03'1 0.3
2018-Aug-13 14:02S 29°52' E 031°02'0 0.0
2018-Aug-13 13:53S 29°52' E 031°02'1 2.3
2018-Aug-13 13:30S 29°53' E 031°02'1 1.7
2018-Aug-13 12:59S 29°52' E 031°01'1 1.9
2018-Aug-13 12:23S 29°53' E 031°00'1 1.4
2018-Aug-13 11:51S 29°52' E 031°01'0 0.7
2018-Aug-13 11:29S 29°52' E 031°01'1 0.2
2018-Aug-13 07:32S 29°53' E 031°02'0 0.2
2018-Aug-13 07:30S 29°52' E 031°02'2 1.4
2018-Aug-13 06:23S 29°53' E 030°60'1 3.5
2018-Aug-13 06:00S 29°52' E 031°01'1 2.0
2018-Aug-13 05:31S 29°52' E 031°02'0 0.7
2018-Aug-13 05:00S 29°52' E 031°02'0 0.2
2018-Aug-13 02:49S 29°52' E 031°02'1 2.2
2018-Aug-13 02:22S 29°53' E 031°01'2 4.2
2018-Aug-13 02:00S 29°53' E 031°03'1 1.3
2018-Aug-13 00:59S 29°52' E 031°02'0 0.5
2018-Aug-13 00:28S 29°52' E 031°02'1 2.3
2018-Aug-13 00:00S 29°53' E 031°03'1 1.2
2018-Aug-12 23:01S 29°52' E 031°02'0 0.0
2018-Aug-12 22:31S 29°52' E 031°02'0 0.0
2018-Aug-12 22:19S 29°52' E 031°02'0 0.0
2018-Aug-12 20:49S 29°52' E 031°02'0 1.5
2018-Aug-12 20:30S 29°52' E 031°02'1 1.8
2018-Aug-12 19:55S 29°53' E 031°02'0 0.7
2018-Aug-12 19:25S 29°53' E 031°03'0 0.1
2018-Aug-12 18:56S 29°53' E 031°03'1 2.4
2018-Aug-12 18:30S 29°52' E 031°02'0 0.4
2018-Aug-12 17:30S 29°52' E 031°02'2 2.6
2018-Aug-12 16:53S 29°53' E 031°02'1 3.0
2018-Aug-12 16:30S 29°52' E 031°02'0 0.1
2018-Aug-12 12:06S 29°52' E 031°02'0 0.0
2018-Aug-12 12:00S 29°52' E 031°02'1 2.6
2018-Aug-12 11:27S 29°53' E 031°02'0 0.2
2018-Aug-12 10:57S 29°53' E 031°03'1 2.1
2018-Aug-12 10:30S 29°52' E 031°03'1 2.5
2018-Aug-12 09:59S 29°52' E 031°02'0 0.0
2018-Aug-12 09:29S 29°52' E 031°02'1 2.0
2018-Aug-12 08:45S 29°53' E 031°00'0 1.3
2018-Aug-12 08:30S 29°53' E 031°00'2 0.7
2018-Aug-12 06:02S 29°52' E 031°02'0 0.1
2018-Aug-12 05:59S 29°52' E 031°02'1 2.3
2018-Aug-12 05:28S 29°53' E 031°01'0 0.2
2018-Aug-12 04:58S 29°53' E 031°01'1 0.2
2018-Aug-11 21:24S 29°52' E 031°02'0 0.0
2018-Aug-11 21:00S 29°52' E 031°02'1 2.0
2018-Aug-11 20:30S 29°53' E 031°01'0 0.3
2018-Aug-11 20:00S 29°53' E 031°01'0 0.6
2018-Aug-11 19:30S 29°53' E 031°02'1 1.1
2018-Aug-11 19:00S 29°53' E 031°01'1 1.8
2018-Aug-11 18:28S 29°52' E 031°02'0 0.1
2018-Aug-11 17:52S 29°52' E 031°02'0 1.0
2018-Aug-11 17:25S 29°52' E 031°02'1 0.6
2018-Aug-11 16:33S 29°53' E 031°01'0 0.6
2018-Aug-11 16:29S 29°53' E 031°01'1 0.9
2018-Aug-11 15:25S 29°52' E 031°02'1 2.0
2018-Aug-11 14:50S 29°52' E 031°01'1 2.6
2018-Aug-11 14:29S 29°52' E 031°02'1 2.9
2018-Aug-11 14:00S 29°53' E 031°03'1 0.2
2018-Aug-11 06:45S 29°52' E 031°02'1 5.0
2018-Aug-11 06:30S 29°53' E 031°03'1 1.7
2018-Aug-11 06:00S 29°52' E 031°02'0 0.2
2018-Aug-11 03:40S 29°52' E 031°02'0 0.0
2018-Aug-11 03:29S 29°52' E 031°02'2 2.7
2018-Aug-11 02:53S 29°53' E 031°02'0 0.3
2018-Aug-11 02:29S 29°53' E 031°02'1 2.3
2018-Aug-11 01:55S 29°53' E 031°03'0 0.0
2018-Aug-11 01:30S 29°53' E 031°03'1 0.8
2018-Aug-10 23:39S 29°52' E 031°02'0 0.0
2018-Aug-10 23:27S 29°52' E 031°02'0 0.8
2018-Aug-10 22:51S 29°52' E 031°02'1 2.9
2018-Aug-10 22:30S 29°53' E 031°03'0 0.2
2018-Aug-10 21:57S 29°53' E 031°03'1 3.1
2018-Aug-10 21:29S 29°52' E 031°02'0 0.0
2018-Aug-10 20:59S 29°52' E 031°02'0 0.0
2018-Aug-10 20:23S 29°52' E 031°02'0 0.0
2018-Aug-10 19:59S 29°52' E 031°02'0 0.0
2018-Aug-10 18:47S 29°52' E 031°02'0 0.8
2018-Aug-10 18:30S 29°52' E 031°02'0 0.8
2018-Aug-10 18:00S 29°52' E 031°02'1 0.4
2018-Aug-10 16:17S 29°52' E 031°02'0 0.0
2018-Aug-10 15:59S 29°52' E 031°02'0 0.0
2018-Aug-10 13:45S 29°52' E 031°02'1 2.2
2018-Aug-10 13:20S 29°52' E 031°03'1 2.4
2018-Aug-10 13:00S 29°52' E 031°03'1 1.1
2018-Aug-10 12:28S 29°52' E 031°03'0 0.0
2018-Aug-10 11:58S 29°52' E 031°03'1 1.4
2018-Aug-10 11:26S 29°53' E 031°02'0 0.9
2018-Aug-10 10:56S 29°52' E 031°02'1 0.2
2018-Aug-10 07:00S 29°52' E 031°02'1 2.3
2018-Aug-10 06:30S 29°53' E 031°02'1 0.3
2018-Aug-10 02:42S 29°52' E 031°02'1 6.4
2018-Aug-10 02:30S 29°52' E 031°03'1 2.0
2018-Aug-10 01:50S 29°53' E 031°02'1 0.3
2018-Aug-09 22:48S 29°52' E 031°02'0 0.0
2018-Aug-09 22:23S 29°52' E 031°02'0 0.7
2018-Aug-09 22:00S 29°52' E 031°02'1 2.5
2018-Aug-09 21:30S 29°53' E 031°03'0 0.5
2018-Aug-09 21:00S 29°52' E 031°03'0 0.8
2018-Aug-09 20:28S 29°52' E 031°03'0 0.0
2018-Aug-09 19:59S 29°52' E 031°03'1 1.1
2018-Aug-09 19:27S 29°52' E 031°02'1 2.0
2018-Aug-09 18:57S 29°53' E 031°03'0 0.4
2018-Aug-09 18:27S 29°53' E 031°03'0 0.0
2018-Aug-09 17:58S 29°53' E 031°03'1 2.5
2018-Aug-09 17:23S 29°53' E 031°01'1 3.6
2018-Aug-09 17:00S 29°53' E 031°03'1 0.6
2018-Aug-09 14:58S 29°52' E 031°02'0 0.4
2018-Aug-09 14:30S 29°52' E 031°02'0 0.6
2018-Aug-09 14:00S 29°52' E 031°02'1 1.7
2018-Aug-09 13:28S 29°53' E 031°01'0 0.1
2018-Aug-09 12:57S 29°53' E 031°01'1 2.1
2018-Aug-09 12:30S 29°52' E 031°02'1 1.9
2018-Aug-09 12:00S 29°53' E 031°03'0 0.4
2018-Aug-09 11:30S 29°53' E 031°03'1 0.8
2018-Aug-09 09:44S 29°52' E 031°02'1 2.5
2018-Aug-09 09:30S 29°52' E 031°02'0 0.4
2018-Aug-09 08:58S 29°53' E 031°02'1 0.6
2018-Aug-09 07:32S 29°53' E 031°03'0 4.6
2018-Aug-09 07:30S 29°53' E 031°03'1 0.6
2018-Aug-09 05:33S 29°52' E 031°02'0 7.7
2018-Aug-09 05:30S 29°52' E 031°02'0 0.4
2018-Aug-09 04:57S 29°52' E 031°02'0 0.1
2018-Aug-09 00:16S 29°52' E 031°02'1 2.8
2018-Aug-09 00:00S 29°53' E 031°02'1 0.5
2018-Aug-08 22:12S 29°52' E 031°02'2 8.3
2018-Aug-08 21:59S 29°53' E 031°00'1 1.9
2018-Aug-08 21:26S 29°52' E 031°01'2 4.2
2018-Aug-08 21:00S 29°53' E 031°03'0 0.7
2018-Aug-08 20:30S 29°52' E 031°03'2 3.4
2018-Aug-08 20:00S 29°52' E 031°01'0 0.2
2018-Aug-08 19:29S 29°52' E 031°01'2 3.7
2018-Aug-08 19:01S 29°53' E 031°03'1 1.2
2018-Aug-08 18:09S 29°52' E 031°02'1 8.5
2018-Aug-08 18:00S 29°52' E 031°03'1 2.4
2018-Aug-08 17:30S 29°52' E 031°02'0 0.4
2018-Aug-08 16:52S 29°53' E 031°02'1 0.1
2018-Aug-08 07:17S 29°52' E 031°02'1 3.0
2018-Aug-08 07:00S 29°52' E 031°02'0 0.7
2018-Aug-08 06:30S 29°53' E 031°03'0 0.4
2018-Aug-08 06:00S 29°53' E 031°03'1 0.3
2018-Aug-08 02:23S 29°52' E 031°02'1 1.9
2018-Aug-08 01:58S 29°52' E 031°02'0 0.1
2018-Aug-07 18:07S 29°52' E 031°02'1 4.4
2018-Aug-07 18:00S 29°53' E 031°02'1 1.2
2018-Aug-07 17:26S 29°53' E 031°02'1 2.5
2018-Aug-07 17:00S 29°53' E 031°03'1 0.2
2018-Aug-07 11:55S 29°52' E 031°02'1 1.5
2018-Aug-07 11:24S 29°53' E 031°02'0 0.1
2018-Aug-07 11:00S 29°53' E 031°02'0 0.3
2018-Aug-07 10:13S 29°53' E 031°02'0 0.6
2018-Aug-07 10:00S 29°53' E 031°02'1 1.1
2018-Aug-07 09:28S 29°52' E 031°02'1 2.1
2018-Aug-07 08:59S 29°52' E 031°03'1 0.7
2018-Aug-07 07:24S 29°52' E 031°02'0 0.3
2018-Aug-07 06:54S 29°52' E 031°02'1 2.6
2018-Aug-07 06:31S 29°53' E 031°01'0 0.8
2018-Aug-07 06:00S 29°53' E 031°02'1 0.1
2018-Aug-07 00:33S 29°52' E 031°02'0 0.5
2018-Aug-07 00:30S 29°52' E 031°02'1 1.7
2018-Aug-06 23:58S 29°52' E 031°03'0 0.0
2018-Aug-06 23:28S 29°52' E 031°03'0 0.0
2018-Aug-06 22:58S 29°52' E 031°03'0 0.5
2018-Aug-06 22:20S 29°52' E 031°02'1 2.3
2018-Aug-06 22:00S 29°52' E 031°03'1 0.2
2018-Aug-06 12:50S 29°52' E 031°02'1 3.1
2018-Aug-06 12:28S 29°53' E 031°02'0 0.1
2018-Aug-06 11:59S 29°53' E 031°01'0 0.3
2018-Aug-06 11:25S 29°53' E 031°02'1 1.5
2018-Aug-06 11:01S 29°52' E 031°02'0 0.7
2018-Aug-06 10:17S 29°52' E 031°03'1 3.1
2018-Aug-06 09:59S 29°53' E 031°02'0 0.5
2018-Aug-06 09:27S 29°53' E 031°02'1 1.5
2018-Aug-06 08:57S 29°52' E 031°02'0 0.0
2018-Aug-06 00:55S 29°52' E 031°02'1 2.5
2018-Aug-06 00:27S 29°53' E 031°03'1 1.4
2018-Aug-06 00:00S 29°52' E 031°03'0 0.7
2018-Aug-05 23:29S 29°52' E 031°03'0 0.4
2018-Aug-05 23:00S 29°53' E 031°03'1 0.8
2018-Aug-05 21:13S 29°52' E 031°02'1 6.2
2018-Aug-05 21:00S 29°53' E 031°02'0 0.8
2018-Aug-05 20:26S 29°53' E 031°02'1 2.1
2018-Aug-05 20:00S 29°52' E 031°02'0 0.0
2018-Aug-05 13:47S 29°52' E 031°02'1 3.1
2018-Aug-05 13:30S 29°53' E 031°03'1 0.2
2018-Aug-05 06:01S 29°52' E 031°02'0 6.9
2018-Aug-05 06:00S 29°52' E 031°02'1 1.3
2018-Aug-05 05:29S 29°53' E 031°02'0 1.0
2018-Aug-05 05:00S 29°53' E 031°01'1 0.3
2018-Aug-05 00:31S 29°52' E 031°02'0 8.4
2018-Aug-05 00:29S 29°52' E 031°02'0 0.6
2018-Aug-04 23:59S 29°52' E 031°02'  
Track history (hours):
 
Tides and Currents Weather Stations Pressure Air Temp Water Temp Dewpoint Dewpoint Depression Visibility Wind Speed Wind Dir Waves Ship Positions

Umbilo

Last reported at 2018-Aug-14 23:08 UTC. Time now 2018-Aug-14 23:44 UTC.
Position S 29°52' E 031°02'.

Length 31 m.

Type: Pilot. MMSI: 601124000.

Date/timePositionNaut miles runAvg speedWind from/ knotsBaromVisibWave heightAir tempDewpointWater temp
2018-Aug-14 23:08S 29°52' E 031°02'1 5.6
2018-Aug-14 23:00S 29°53' E 031°02'1 0.9
2018-Aug-14 22:25S 29°53' E 031°02'0 0.0
2018-Aug-14 22:00S 29°53' E 031°02'1 0.8
2018-Aug-14 20:13S 29°52' E 031°02'1 6.0
2018-Aug-14 20:01S 29°53' E 031°03'0 0.5
2018-Aug-14 19:27S 29°53' E 031°03'1 2.3
2018-Aug-14 19:00S 29°52' E 031°02'0 0.9
2018-Aug-14 18:30S 29°53' E 031°02'1 1.6
2018-Aug-14 17:56S 29°52' E 031°03'0 0.0
2018-Aug-14 17:26S 29°52' E 031°03'1 1.7
2018-Aug-14 17:00S 29°52' E 031°02'1 0.1
2018-Aug-14 06:47S 29°52' E 031°02'2 6.3
2018-Aug-14 06:29S 29°53' E 031°00'0 0.1
2018-Aug-14 05:39S 29°53' E 031°00'1 6.6
2018-Aug-14 05:30S 29°52' E 031°01'1 0.4
2018-Aug-14 03:11S 29°52' E 031°02'1 5.1
2018-Aug-14 03:00S 29°53' E 031°02'1 1.1
2018-Aug-14 02:21S 29°53' E 031°02'1 2.7
2018-Aug-14 01:57S 29°52' E 031°02'0 0.1
2018-Aug-13 18:45S 29°52' E 031°02'1 1.3
2018-Aug-13 18:00S 29°53' E 031°03'1 0.3
2018-Aug-13 14:02S 29°52' E 031°02'0 0.0
2018-Aug-13 13:53S 29°52' E 031°02'1 2.3
2018-Aug-13 13:30S 29°53' E 031°02'1 1.7
2018-Aug-13 12:59S 29°52' E 031°01'1 1.9
2018-Aug-13 12:23S 29°53' E 031°00'1 1.4
2018-Aug-13 11:51S 29°52' E 031°01'0 0.7
2018-Aug-13 11:29S 29°52' E 031°01'1 0.2
2018-Aug-13 07:32S 29°53' E 031°02'0 0.2
2018-Aug-13 07:30S 29°52' E 031°02'2 1.4
2018-Aug-13 06:23S 29°53' E 030°60'1 3.5
2018-Aug-13 06:00S 29°52' E 031°01'1 2.0
2018-Aug-13 05:31S 29°52' E 031°02'0 0.7
2018-Aug-13 05:00S 29°52' E 031°02'0 0.2
2018-Aug-13 02:49S 29°52' E 031°02'1 2.2
2018-Aug-13 02:22S 29°53' E 031°01'2 4.2
2018-Aug-13 02:00S 29°53' E 031°03'1 1.3
2018-Aug-13 00:59S 29°52' E 031°02'0 0.5
2018-Aug-13 00:28S 29°52' E 031°02'1 2.3
2018-Aug-13 00:00S 29°53' E 031°03'1 1.2
2018-Aug-12 23:01S 29°52' E 031°02'0 0.0
2018-Aug-12 22:31S 29°52' E 031°02'0 0.0
2018-Aug-12 22:19S 29°52' E 031°02'0 0.0
2018-Aug-12 20:49S 29°52' E 031°02'0 1.5
2018-Aug-12 20:30S 29°52' E 031°02'1 1.8
2018-Aug-12 19:55S 29°53' E 031°02'0 0.7
2018-Aug-12 19:25S 29°53' E 031°03'0 0.1
2018-Aug-12 18:56S 29°53' E 031°03'1 2.4
2018-Aug-12 18:30S 29°52' E 031°02'0 0.4
2018-Aug-12 17:30S 29°52' E 031°02'2 2.6
2018-Aug-12 16:53S 29°53' E 031°02'1 3.0
2018-Aug-12 16:30S 29°52' E 031°02'0 0.1
2018-Aug-12 12:06S 29°52' E 031°02'0 0.0
2018-Aug-12 12:00S 29°52' E 031°02'1 2.6
2018-Aug-12 11:27S 29°53' E 031°02'0 0.2
2018-Aug-12 10:57S 29°53' E 031°03'1 2.1
2018-Aug-12 10:30S 29°52' E 031°03'1 2.5
2018-Aug-12 09:59S 29°52' E 031°02'0 0.0
2018-Aug-12 09:29S 29°52' E 031°02'1 2.0
2018-Aug-12 08:45S 29°53' E 031°00'0 1.3
2018-Aug-12 08:30S 29°53' E 031°00'2 0.7
2018-Aug-12 06:02S 29°52' E 031°02'0 0.1
2018-Aug-12 05:59S 29°52' E 031°02'1 2.3
2018-Aug-12 05:28S 29°53' E 031°01'0 0.2
2018-Aug-12 04:58S 29°53' E 031°01'1 0.2
2018-Aug-11 21:24S 29°52' E 031°02'0 0.0
2018-Aug-11 21:00S 29°52' E 031°02'1 2.0
2018-Aug-11 20:30S 29°53' E 031°01'0 0.3
2018-Aug-11 20:00S 29°53' E 031°01'0 0.6
2018-Aug-11 19:30S 29°53' E 031°02'1 1.1
2018-Aug-11 19:00S 29°53' E 031°01'1 1.8
2018-Aug-11 18:28S 29°52' E 031°02'0 0.1
2018-Aug-11 17:52S 29°52' E 031°02'0 1.0
2018-Aug-11 17:25S 29°52' E 031°02'1 0.6
2018-Aug-11 16:33S 29°53' E 031°01'0 0.6
2018-Aug-11 16:29S 29°53' E 031°01'1 0.9
2018-Aug-11 15:25S 29°52' E 031°02'1 2.0
2018-Aug-11 14:50S 29°52' E 031°01'1 2.6
2018-Aug-11 14:29S 29°52' E 031°02'1 2.9
2018-Aug-11 14:00S 29°53' E 031°03'1 0.2
2018-Aug-11 06:45S 29°52' E 031°02'1 5.0
2018-Aug-11 06:30S 29°53' E 031°03'1 1.7
2018-Aug-11 06:00S 29°52' E 031°02'0 0.2
2018-Aug-11 03:40S 29°52' E 031°02'0 0.0
2018-Aug-11 03:29S 29°52' E 031°02'2 2.7
2018-Aug-11 02:53S 29°53' E 031°02'0 0.3
2018-Aug-11 02:29S 29°53' E 031°02'1 2.3
2018-Aug-11 01:55S 29°53' E 031°03'0 0.0
2018-Aug-11 01:30S 29°53' E 031°03'1 0.8
2018-Aug-10 23:39S 29°52' E 031°02'0 0.0
2018-Aug-10 23:27S 29°52' E 031°02'0 0.8
2018-Aug-10 22:51S 29°52' E 031°02'1 2.9
2018-Aug-10 22:30S 29°53' E 031°03'0 0.2
2018-Aug-10 21:57S 29°53' E 031°03'1 3.1
2018-Aug-10 21:29S 29°52' E 031°02'0 0.0
2018-Aug-10 20:59S 29°52' E 031°02'0 0.0
2018-Aug-10 20:23S 29°52' E 031°02'0 0.0
2018-Aug-10 19:59S 29°52' E 031°02'0 0.0
2018-Aug-10 18:47S 29°52' E 031°02'0 0.8
2018-Aug-10 18:30S 29°52' E 031°02'0 0.8
2018-Aug-10 18:00S 29°52' E 031°02'1 0.4
2018-Aug-10 16:17S 29°52' E 031°02'0 0.0
2018-Aug-10 15:59S 29°52' E 031°02'0 0.0
2018-Aug-10 13:45S 29°52' E 031°02'1 2.2
2018-Aug-10 13:20S 29°52' E 031°03'1 2.4
2018-Aug-10 13:00S 29°52' E 031°03'1 1.1
2018-Aug-10 12:28S 29°52' E 031°03'0 0.0
2018-Aug-10 11:58S 29°52' E 031°03'1 1.4
2018-Aug-10 11:26S 29°53' E 031°02'0 0.9
2018-Aug-10 10:56S 29°52' E 031°02'1 0.2
2018-Aug-10 07:00S 29°52' E 031°02'1 2.3
2018-Aug-10 06:30S 29°53' E 031°02'1 0.3
2018-Aug-10 02:42S 29°52' E 031°02'1 6.4
2018-Aug-10 02:30S 29°52' E 031°03'1 2.0
2018-Aug-10 01:50S 29°53' E 031°02'1 0.3
2018-Aug-09 22:48S 29°52' E 031°02'0 0.0
2018-Aug-09 22:23S 29°52' E 031°02'0 0.7
2018-Aug-09 22:00S 29°52' E 031°02'1 2.5
2018-Aug-09 21:30S 29°53' E 031°03'0 0.5
2018-Aug-09 21:00S 29°52' E 031°03'0 0.8
2018-Aug-09 20:28S 29°52' E 031°03'0 0.0
2018-Aug-09 19:59S 29°52' E 031°03'1 1.1
2018-Aug-09 19:27S 29°52' E 031°02'1 2.0
2018-Aug-09 18:57S 29°53' E 031°03'0 0.4
2018-Aug-09 18:27S 29°53' E 031°03'0 0.0
2018-Aug-09 17:58S 29°53' E 031°03'1 2.5
2018-Aug-09 17:23S 29°53' E 031°01'1 3.6
2018-Aug-09 17:00S 29°53' E 031°03'1 0.6
2018-Aug-09 14:58S 29°52' E 031°02'0 0.4
2018-Aug-09 14:30S 29°52' E 031°02'0 0.6
2018-Aug-09 14:00S 29°52' E 031°02'1 1.7
2018-Aug-09 13:28S 29°53' E 031°01'0 0.1
2018-Aug-09 12:57S 29°53' E 031°01'1 2.1
2018-Aug-09 12:30S 29°52' E 031°02'1 1.9
2018-Aug-09 12:00S 29°53' E 031°03'0 0.4
2018-Aug-09 11:30S 29°53' E 031°03'1 0.8
2018-Aug-09 09:44S 29°52' E 031°02'1 2.5
2018-Aug-09 09:30S 29°52' E 031°02'0 0.4
2018-Aug-09 08:58S 29°53' E 031°02'1 0.6
2018-Aug-09 07:32S 29°53' E 031°03'0 4.6
2018-Aug-09 07:30S 29°53' E 031°03'1 0.6
2018-Aug-09 05:33S 29°52' E 031°02'0 7.7
2018-Aug-09 05:30S 29°52' E 031°02'0 0.4
2018-Aug-09 04:57S 29°52' E 031°02'0 0.1
2018-Aug-09 00:16S 29°52' E 031°02'1 2.8
2018-Aug-09 00:00S 29°53' E 031°02'1 0.5
2018-Aug-08 22:12S 29°52' E 031°02'2 8.3
2018-Aug-08 21:59S 29°53' E 031°00'1 1.9
2018-Aug-08 21:26S 29°52' E 031°01'2 4.2
2018-Aug-08 21:00S 29°53' E 031°03'0 0.7
2018-Aug-08 20:30S 29°52' E 031°03'2 3.4
2018-Aug-08 20:00S 29°52' E 031°01'0 0.2
2018-Aug-08 19:29S 29°52' E 031°01'2 3.7
2018-Aug-08 19:01S 29°53' E 031°03'1 1.2
2018-Aug-08 18:09S 29°52' E 031°02'1 8.5
2018-Aug-08 18:00S 29°52' E 031°03'1 2.4
2018-Aug-08 17:30S 29°52' E 031°02'0 0.4
2018-Aug-08 16:52S 29°53' E 031°02'1 0.1
2018-Aug-08 07:17S 29°52' E 031°02'1 3.0
2018-Aug-08 07:00S 29°52' E 031°02'0 0.7
2018-Aug-08 06:30S 29°53' E 031°03'0 0.4
2018-Aug-08 06:00S 29°53' E 031°03'1 0.3
2018-Aug-08 02:23S 29°52' E 031°02'1 1.9
2018-Aug-08 01:58S 29°52' E 031°02'0 0.1
2018-Aug-07 18:07S 29°52' E 031°02'1 4.4
2018-Aug-07 18:00S 29°53' E 031°02'1 1.2
2018-Aug-07 17:26S 29°53' E 031°02'1 2.5
2018-Aug-07 17:00S 29°53' E 031°03'1 0.2
2018-Aug-07 11:55S 29°52' E 031°02'1 1.5
2018-Aug-07 11:24S 29°53' E 031°02'0 0.1
2018-Aug-07 11:00S 29°53' E 031°02'0 0.3
2018-Aug-07 10:13S 29°53' E 031°02'0 0.6
2018-Aug-07 10:00S 29°53' E 031°02'1 1.1
2018-Aug-07 09:28S 29°52' E 031°02'1 2.1
2018-Aug-07 08:59S 29°52' E 031°03'1 0.7
2018-Aug-07 07:24S 29°52' E 031°02'0 0.3
2018-Aug-07 06:54S 29°52' E 031°02'1 2.6
2018-Aug-07 06:31S 29°53' E 031°01'0 0.8
2018-Aug-07 06:00S 29°53' E 031°02'1 0.1
2018-Aug-07 00:33S 29°52' E 031°02'0 0.5
2018-Aug-07 00:30S 29°52' E 031°02'1 1.7
2018-Aug-06 23:58S 29°52' E 031°03'0 0.0
2018-Aug-06 23:28S 29°52' E 031°03'0 0.0
2018-Aug-06 22:58S 29°52' E 031°03'0 0.5
2018-Aug-06 22:20S 29°52' E 031°02'1 2.3
2018-Aug-06 22:00S 29°52' E 031°03'1 0.2
2018-Aug-06 12:50S 29°52' E 031°02'1 3.1
2018-Aug-06 12:28S 29°53' E 031°02'0 0.1
2018-Aug-06 11:59S 29°53' E 031°01'0 0.3
2018-Aug-06 11:25S 29°53' E 031°02'1 1.5
2018-Aug-06 11:01S 29°52' E 031°02'0 0.7
2018-Aug-06 10:17S 29°52' E 031°03'1 3.1
2018-Aug-06 09:59S 29°53' E 031°02'0 0.5
2018-Aug-06 09:27S 29°53' E 031°02'1 1.5
2018-Aug-06 08:57S 29°52' E 031°02'0 0.0
2018-Aug-06 00:55S 29°52' E 031°02'1 2.5
2018-Aug-06 00:27S 29°53' E 031°03'1 1.4
2018-Aug-06 00:00S 29°52' E 031°03'0 0.7
2018-Aug-05 23:29S 29°52' E 031°03'0 0.4
2018-Aug-05 23:00S 29°53' E 031°03'1 0.8
2018-Aug-05 21:13S 29°52' E 031°02'1 6.2
2018-Aug-05 21:00S 29°53' E 031°02'0 0.8
2018-Aug-05 20:26S 29°53' E 031°02'1 2.1
2018-Aug-05 20:00S 29°52' E 031°02'0 0.0
2018-Aug-05 13:47S 29°52' E 031°02'1 3.1
2018-Aug-05 13:30S 29°53' E 031°03'1 0.2
2018-Aug-05 06:01S 29°52' E 031°02'0 6.9
2018-Aug-05 06:00S 29°52' E 031°02'1 1.3
2018-Aug-05 05:29S 29°53' E 031°02'0 1.0
2018-Aug-05 05:00S 29°53' E 031°01'1 0.3
2018-Aug-05 00:31S 29°52' E 031°02'0 8.4
2018-Aug-05 00:29S 29°52' E 031°02'0 0.6
2018-Aug-04 23:59S 29°52' E 031°02'  

Dump ship's entire track history